createdAt,value
2023-05-09T00:01:18.132Z,25.50
2023-05-09T00:03:46.061Z,25.50
2023-05-09T00:06:15.515Z,25.50
2023-05-09T00:08:43.548Z,25.40
2023-05-09T00:11:11.730Z,25.40
2023-05-09T00:13:39.837Z,25.40
2023-05-09T00:16:10.570Z,25.40
2023-05-09T00:18:42.326Z,25.40
2023-05-09T00:21:11.066Z,25.40
2023-05-09T00:23:39.194Z,25.30
2023-05-09T00:26:07.502Z,25.30
2023-05-09T00:28:35.442Z,25.30
2023-05-09T00:31:04.275Z,25.30
2023-05-09T00:33:33.633Z,25.30
2023-05-09T00:36:01.605Z,25.30
2023-05-09T00:38:29.556Z,25.30
2023-05-09T00:40:57.507Z,25.20
2023-05-09T00:43:25.815Z,25.20
2023-05-09T00:45:53.793Z,25.20
2023-05-09T00:48:22.393Z,25.20
2023-05-09T00:50:53.216Z,25.20
2023-05-09T00:53:21.676Z,25.20
2023-05-09T00:55:49.924Z,25.20
2023-05-09T00:58:19.372Z,25.10
2023-05-09T01:00:48.040Z,25.10
2023-05-09T01:03:16.304Z,25.10
2023-05-09T01:05:52.305Z,25.10
2023-05-09T01:08:28.640Z,25.10
2023-05-09T01:10:59.483Z,25.10
2023-05-09T01:13:31.760Z,25.10
2023-05-09T01:16:06.086Z,25.00
2023-05-09T01:18:39.230Z,25.00
2023-05-09T01:21:08.918Z,25.00
2023-05-09T01:23:49.608Z,25.00
2023-05-09T01:26:21.767Z,25.00
2023-05-09T01:29:02.697Z,24.90
2023-05-09T01:31:32.592Z,24.90
2023-05-09T01:34:03.790Z,24.90
2023-05-09T01:36:33.411Z,24.90
2023-05-09T01:39:04.353Z,24.90
2023-05-09T01:41:33.259Z,24.90
2023-05-09T01:44:03.225Z,24.90
2023-05-09T01:46:32.712Z,24.80
2023-05-09T01:49:01.358Z,24.80
2023-05-09T01:51:30.146Z,24.80
2023-05-09T01:53:58.789Z,24.80
2023-05-09T01:56:26.849Z,24.70
2023-05-09T01:58:56.008Z,24.70
2023-05-09T02:01:25.030Z,24.70
2023-05-09T02:03:55.343Z,24.70
2023-05-09T02:06:24.241Z,24.70
2023-05-09T02:08:52.263Z,24.70
2023-05-09T02:11:20.202Z,24.70
2023-05-09T02:13:48.173Z,24.70
2023-05-09T02:16:16.519Z,24.70
2023-05-09T02:18:44.483Z,24.60
2023-05-09T02:21:13.867Z,24.60
2023-05-09T02:23:41.838Z,24.60
2023-05-09T02:26:09.913Z,24.60
2023-05-09T02:28:39.335Z,24.60
2023-05-09T02:31:07.685Z,24.50
2023-05-09T02:33:37.997Z,24.50
2023-05-09T02:36:06.596Z,24.50
2023-05-09T02:38:36.280Z,24.50
2023-05-09T02:41:04.229Z,24.40
2023-05-09T02:43:32.162Z,24.40
2023-05-09T02:46:00.201Z,24.40
2023-05-09T02:48:28.206Z,24.40
2023-05-09T02:50:57.159Z,24.40
2023-05-09T02:53:25.129Z,24.40
2023-05-09T02:55:54.464Z,24.40
2023-05-09T02:58:22.417Z,24.40
2023-05-09T03:00:50.980Z,24.40
2023-05-09T03:03:19.346Z,24.40
2023-05-09T03:05:47.349Z,24.40
2023-05-09T03:08:16.055Z,24.30
2023-05-09T03:10:43.979Z,24.30
2023-05-09T03:13:13.309Z,24.20
2023-05-09T03:15:41.458Z,24.20
2023-05-09T03:18:09.469Z,24.30
2023-05-09T03:20:37.464Z,24.20
2023-05-09T03:23:05.384Z,24.20
2023-05-09T03:25:33.312Z,24.20
2023-05-09T03:28:01.240Z,24.10
2023-05-09T03:30:30.558Z,24.10
2023-05-09T03:32:58.575Z,24.10
2023-05-09T03:35:26.543Z,24.10
2023-05-09T03:37:54.485Z,24.10
2023-05-09T03:40:22.415Z,24.10
2023-05-09T03:42:50.533Z,24.00
2023-05-09T03:45:18.506Z,24.00
2023-05-09T03:47:47.883Z,24.00
2023-05-09T03:50:15.956Z,24.00
2023-05-09T03:52:43.935Z,24.00
2023-05-09T03:55:12.158Z,24.00
2023-05-09T03:57:40.209Z,23.90
2023-05-09T04:00:10.278Z,23.90
2023-05-09T04:02:38.248Z,23.90
2023-05-09T04:05:07.887Z,24.00
2023-05-09T04:07:35.838Z,24.00
2023-05-09T04:10:03.804Z,24.00
2023-05-09T04:12:31.754Z,23.90
2023-05-09T04:14:59.946Z,23.90
2023-05-09T04:17:27.954Z,23.90
2023-05-09T04:19:56.311Z,23.90
2023-05-09T04:22:25.817Z,23.90
2023-05-09T04:24:53.739Z,23.90
2023-05-09T04:27:21.823Z,23.90
2023-05-09T04:29:49.877Z,23.80
2023-05-09T04:32:17.818Z,23.70
2023-05-09T04:34:45.737Z,23.70
2023-05-09T04:37:13.930Z,23.70
2023-05-09T04:39:43.475Z,23.70
2023-05-09T04:42:11.648Z,23.70
2023-05-09T04:44:39.560Z,23.70
2023-05-09T04:47:07.468Z,23.70
2023-05-09T04:49:35.406Z,23.80
2023-05-09T04:52:03.321Z,23.80
2023-05-09T04:54:31.286Z,23.80
2023-05-09T04:57:10.195Z,23.80
2023-05-09T04:59:42.059Z,23.90
2023-05-09T05:02:09.958Z,23.90
2023-05-09T05:04:38.046Z,23.90
2023-05-09T05:07:06.267Z,23.90
2023-05-09T05:09:34.211Z,23.90
2023-05-09T05:12:09.118Z,24.00
2023-05-09T05:14:37.643Z,24.00
2023-05-09T05:17:05.531Z,24.00
2023-05-09T05:19:34.160Z,24.10
2023-05-09T05:22:02.137Z,24.20
2023-05-09T05:24:30.077Z,24.20
2023-05-09T05:26:58.020Z,24.20
2023-05-09T05:29:27.361Z,24.20
2023-05-09T05:31:55.597Z,24.20
2023-05-09T05:34:23.640Z,24.20
2023-05-09T05:36:51.566Z,24.20
2023-05-09T05:39:19.487Z,24.20
2023-05-09T05:41:47.484Z,24.30
2023-05-09T05:44:15.398Z,24.30
2023-05-09T05:46:44.728Z,24.30
2023-05-09T05:49:12.637Z,24.30
2023-05-09T05:51:40.811Z,24.40
2023-05-09T05:54:08.710Z,24.40
2023-05-09T05:56:36.644Z,24.40
2023-05-09T05:59:04.561Z,24.50
2023-05-09T06:01:32.476Z,24.50
2023-05-09T06:04:01.810Z,24.50
2023-05-09T06:06:29.852Z,24.70
2023-05-09T06:08:57.874Z,24.70
2023-05-09T06:11:25.903Z,24.80
2023-05-09T06:13:53.852Z,24.90
2023-05-09T06:16:22.226Z,25.00
2023-05-09T06:18:50.328Z,25.10
2023-05-09T06:21:19.597Z,25.30
2023-05-09T06:24:04.268Z,25.40
2023-05-09T06:26:34.202Z,25.50
2023-05-09T06:29:02.203Z,25.60
2023-05-09T06:31:30.152Z,25.70
2023-05-09T06:33:58.110Z,25.80
2023-05-09T06:36:27.404Z,26.00
2023-05-09T06:38:55.328Z,26.10
2023-05-09T06:41:23.274Z,26.10
2023-05-09T06:43:51.301Z,26.10
2023-05-09T06:46:19.369Z,26.10
2023-05-09T06:48:47.318Z,26.30
2023-05-09T06:51:15.254Z,26.30
2023-05-09T06:53:44.612Z,26.40
2023-05-09T06:56:12.853Z,26.50
2023-05-09T06:58:40.915Z,26.60
2023-05-09T07:01:08.919Z,26.80
2023-05-09T07:03:36.830Z,26.90
2023-05-09T07:06:05.148Z,27.10
2023-05-09T07:08:33.040Z,27.20
2023-05-09T07:11:02.390Z,27.30
2023-05-09T07:13:30.295Z,27.20
2023-05-09T07:15:58.334Z,27.20
2023-05-09T07:18:26.346Z,27.20
2023-05-09T07:20:54.286Z,27.30
2023-05-09T07:23:22.193Z,27.40
2023-05-09T07:25:50.180Z,27.40
2023-05-09T07:28:19.457Z,27.50
2023-05-09T07:30:47.380Z,27.60
2023-05-09T07:33:15.311Z,27.60
2023-05-09T07:35:43.262Z,27.70
2023-05-09T07:38:11.291Z,27.70
2023-05-09T07:40:39.312Z,27.80
2023-05-09T07:43:07.246Z,28.00
2023-05-09T07:45:36.635Z,28.00
2023-05-09T07:48:04.813Z,28.00
2023-05-09T07:50:32.754Z,28.10
2023-05-09T07:53:01.109Z,28.30
2023-05-09T07:55:29.015Z,28.50
2023-05-09T07:57:57.191Z,28.60
2023-05-09T08:00:25.466Z,28.90
2023-05-09T08:02:55.190Z,29.40
2023-05-09T08:05:23.240Z,29.60
2023-05-09T08:07:51.166Z,29.70
2023-05-09T08:10:19.095Z,29.80
2023-05-09T08:12:47.045Z,29.90
2023-05-09T08:15:15.190Z,29.90
2023-05-09T08:17:43.358Z,29.80
2023-05-09T08:20:13.918Z,29.40
2023-05-09T08:22:42.084Z,28.90
2023-05-09T08:25:10.451Z,28.60
2023-05-09T08:27:38.361Z,28.40
2023-05-09T08:30:07.045Z,28.10
2023-05-09T08:32:35.090Z,27.90
2023-05-09T08:35:03.049Z,27.80
2023-05-09T08:37:32.330Z,27.60
2023-05-09T08:40:00.444Z,27.60
2023-05-09T08:42:28.900Z,27.60
2023-05-09T08:44:56.897Z,27.70
2023-05-09T08:47:25.425Z,27.70
2023-05-09T08:49:54.083Z,27.70
2023-05-09T08:52:22.680Z,27.80
2023-05-09T08:54:53.420Z,27.80
2023-05-09T08:57:21.448Z,27.80
2023-05-09T08:59:50.466Z,27.90
2023-05-09T09:02:18.599Z,27.90
2023-05-09T09:04:46.937Z,28.00
2023-05-09T09:07:15.454Z,28.00
2023-05-09T09:09:45.515Z,28.10
2023-05-09T09:12:16.456Z,28.10
2023-05-09T09:14:47.547Z,28.10
2023-05-09T09:17:16.834Z,28.20
2023-05-09T09:19:46.021Z,28.30
2023-05-09T09:22:16.716Z,28.40
2023-05-09T09:24:44.736Z,28.40
2023-05-09T09:27:14.045Z,28.40
2023-05-09T09:29:41.984Z,28.50
2023-05-09T09:32:09.972Z,28.60
2023-05-09T09:34:38.273Z,28.70
2023-05-09T09:37:07.701Z,28.70
2023-05-09T09:39:35.715Z,28.70
2023-05-09T09:42:14.160Z,28.70
2023-05-09T09:44:42.095Z,28.60
2023-05-09T09:47:11.129Z,28.50
2023-05-09T09:49:39.339Z,28.20
2023-05-09T09:52:07.262Z,28.00
2023-05-09T09:54:35.275Z,27.90
2023-05-09T09:57:03.228Z,27.80
2023-05-09T09:59:32.606Z,27.90
2023-05-09T10:02:04.010Z,28.00
2023-05-09T10:04:34.582Z,28.30
2023-05-09T10:07:03.592Z,28.60
2023-05-09T10:09:31.530Z,28.90
2023-05-09T10:12:03.189Z,29.40
2023-05-09T10:14:35.125Z,29.60
2023-05-09T10:17:04.463Z,29.50
2023-05-09T10:19:32.652Z,29.40
2023-05-09T10:22:04.321Z,29.50
2023-05-09T10:24:36.784Z,29.60
2023-05-09T10:27:07.250Z,29.60
2023-05-09T10:29:38.845Z,29.40
2023-05-09T10:32:12.963Z,29.20
2023-05-09T10:34:43.472Z,29.10
2023-05-09T10:37:11.723Z,29.10
2023-05-09T10:39:39.826Z,29.10
2023-05-09T10:42:08.270Z,29.40
2023-05-09T10:44:38.502Z,29.50
2023-05-09T10:47:07.286Z,30.00
2023-05-09T10:49:37.074Z,30.40
2023-05-09T10:52:05.574Z,30.20
2023-05-09T10:54:33.764Z,30.00
2023-05-09T10:57:01.731Z,29.90
2023-05-09T10:59:38.334Z,29.80
2023-05-09T11:02:06.721Z,29.60
2023-05-09T11:04:34.689Z,29.50
2023-05-09T11:07:02.618Z,29.30
2023-05-09T11:09:33.225Z,29.00
2023-05-09T11:12:10.952Z,28.90
2023-05-09T11:14:44.598Z,28.70
2023-05-09T11:17:13.514Z,28.70
2023-05-09T11:20:00.740Z,28.60
2023-05-09T11:22:29.312Z,28.50
2023-05-09T11:25:05.685Z,28.40
2023-05-09T11:27:38.848Z,28.50
2023-05-09T11:30:09.074Z,28.80
2023-05-09T11:32:42.516Z,28.90
2023-05-09T11:35:12.144Z,29.10
2023-05-09T11:37:50.765Z,29.40
2023-05-09T11:40:19.026Z,29.60
2023-05-09T11:42:47.633Z,30.00
2023-05-09T11:45:18.033Z,30.00
2023-05-09T11:47:46.827Z,29.90
2023-05-09T11:50:15.402Z,30.00
2023-05-09T11:52:43.457Z,30.20
2023-05-09T11:55:12.789Z,30.10
2023-05-09T11:57:41.210Z,30.10
2023-05-09T12:00:10.570Z,30.10
2023-05-09T12:02:40.255Z,30.10
2023-05-09T12:05:09.510Z,30.10
2023-05-09T12:07:37.827Z,30.30
2023-05-09T12:10:06.925Z,30.40
2023-05-09T12:12:35.516Z,30.30
2023-05-09T12:15:04.673Z,30.40
2023-05-09T12:17:32.704Z,31.00
2023-05-09T12:20:04.771Z,31.20
2023-05-09T12:22:32.955Z,31.40
2023-05-09T12:25:02.453Z,31.50
2023-05-09T12:27:32.113Z,31.50
2023-05-09T12:30:01.150Z,31.70
2023-05-09T12:32:32.910Z,31.80
2023-05-09T12:35:02.530Z,31.60
2023-05-09T12:37:32.612Z,31.30
2023-05-09T12:40:04.866Z,31.00
2023-05-09T12:42:32.855Z,30.90
2023-05-09T12:45:02.523Z,30.90
2023-05-09T12:47:31.106Z,30.80
2023-05-09T12:50:00.050Z,30.60
2023-05-09T12:52:34.404Z,30.50
2023-05-09T12:55:06.645Z,30.30
2023-05-09T12:57:34.893Z,30.10
2023-05-09T13:00:03.913Z,30.10
2023-05-09T13:02:35.155Z,29.90
2023-05-09T13:05:06.880Z,29.90
2023-05-09T13:07:41.388Z,29.70
2023-05-09T13:10:13.321Z,29.70
2023-05-09T13:12:44.582Z,29.60
2023-05-09T13:15:13.378Z,29.40
2023-05-09T13:17:41.857Z,29.40
2023-05-09T13:20:10.732Z,29.20
2023-05-09T13:22:38.772Z,29.20
2023-05-09T13:25:08.749Z,29.10
2023-05-09T13:27:37.405Z,29.20
2023-05-09T13:30:07.579Z,29.20
2023-05-09T13:32:36.744Z,29.30
2023-05-09T13:35:07.593Z,29.40
2023-05-09T13:37:35.736Z,29.30
2023-05-09T13:40:04.313Z,29.30
2023-05-09T13:42:34.558Z,29.20
2023-05-09T13:45:02.466Z,29.30
2023-05-09T13:47:30.538Z,29.40
2023-05-09T13:50:00.666Z,29.60
2023-05-09T13:52:28.599Z,29.80
2023-05-09T13:54:56.506Z,29.90
2023-05-09T13:57:24.459Z,30.10
2023-05-09T13:59:53.930Z,30.30
2023-05-09T14:02:21.913Z,30.40
2023-05-09T14:04:49.881Z,30.50
2023-05-09T14:07:17.924Z,29.80
2023-05-09T14:09:48.176Z,30.50
2023-05-09T14:12:19.189Z,30.60
2023-05-09T14:14:47.115Z,30.80
2023-05-09T14:17:16.424Z,30.80
2023-05-09T14:19:44.463Z,30.90
2023-05-09T14:22:12.379Z,30.60
2023-05-09T14:24:40.902Z,30.30
2023-05-09T14:27:08.804Z,30.10
2023-05-09T14:29:41.027Z,29.90
2023-05-09T14:32:12.746Z,29.60
2023-05-09T14:34:42.233Z,29.50
2023-05-09T14:37:13.792Z,29.40
2023-05-09T14:39:42.254Z,29.50
2023-05-09T14:42:11.595Z,29.70
2023-05-09T14:44:39.539Z,29.80
2023-05-09T14:47:08.551Z,29.80
2023-05-09T14:49:37.892Z,29.80
2023-05-09T14:52:07.369Z,29.70
2023-05-09T14:54:35.497Z,29.60
2023-05-09T14:57:05.019Z,29.40
2023-05-09T14:59:34.814Z,29.30
2023-05-09T15:02:04.751Z,29.10
2023-05-09T15:04:32.742Z,28.90
2023-05-09T15:07:00.730Z,28.90
2023-05-09T15:09:30.033Z,28.80
2023-05-09T15:11:57.970Z,28.60
2023-05-09T15:14:25.897Z,28.50
2023-05-09T15:16:55.258Z,28.40
2023-05-09T15:19:23.415Z,28.20
2023-05-09T15:21:51.655Z,28.10
2023-05-09T15:24:19.574Z,28.10
2023-05-09T15:26:48.870Z,28.00
2023-05-09T15:29:16.792Z,28.00
2023-05-09T15:31:44.912Z,28.10
2023-05-09T15:34:12.911Z,28.10
2023-05-09T15:36:40.841Z,28.00
2023-05-09T15:39:08.828Z,28.00
2023-05-09T15:41:36.796Z,27.90
2023-05-09T15:44:07.337Z,27.80
2023-05-09T15:46:35.427Z,27.70
2023-05-09T15:49:03.356Z,27.70
2023-05-09T15:51:31.780Z,27.70
2023-05-09T15:54:00.058Z,27.80
2023-05-09T15:56:28.052Z,27.70
2023-05-09T15:58:56.025Z,27.80
2023-05-09T16:01:25.360Z,27.80
2023-05-09T16:03:53.492Z,27.70
2023-05-09T16:06:21.690Z,27.70
2023-05-09T16:08:49.599Z,27.60
2023-05-09T16:11:17.599Z,27.40
2023-05-09T16:13:46.599Z,27.40
2023-05-09T16:16:14.605Z,27.30
2023-05-09T16:18:43.970Z,27.20
2023-05-09T16:21:12.333Z,27.20
2023-05-09T16:23:40.592Z,27.10
2023-05-09T16:26:08.522Z,27.10
2023-05-09T16:28:36.447Z,26.90
2023-05-09T16:31:05.621Z,26.80
2023-05-09T16:33:33.554Z,26.80
2023-05-09T16:36:02.876Z,26.70
2023-05-09T16:38:31.307Z,26.60
2023-05-09T16:40:59.255Z,26.60
2023-05-09T16:43:27.190Z,26.50
2023-05-09T16:45:55.447Z,26.60
2023-05-09T16:48:23.444Z,26.70
2023-05-09T16:50:53.728Z,26.70
2023-05-09T16:53:23.665Z,26.80
2023-05-09T16:55:53.898Z,26.80
2023-05-09T16:58:21.856Z,26.80
2023-05-09T17:00:51.140Z,26.80
2023-05-09T17:03:19.098Z,26.80
2023-05-09T17:05:47.039Z,26.80
2023-05-09T17:08:15.275Z,26.80
2023-05-09T17:10:44.575Z,26.80
2023-05-09T17:13:12.568Z,26.80
2023-05-09T17:15:40.696Z,26.80
2023-05-09T17:18:08.864Z,26.80
2023-05-09T17:20:36.987Z,26.80
2023-05-09T17:23:05.184Z,26.80
2023-05-09T17:25:33.497Z,26.80
2023-05-09T17:28:02.899Z,26.90
2023-05-09T17:30:30.840Z,26.80
2023-05-09T17:32:58.838Z,26.80
2023-05-09T17:35:26.886Z,26.70
2023-05-09T17:37:55.202Z,26.70
2023-05-09T17:40:23.254Z,26.70
2023-05-09T17:42:51.260Z,26.60
2023-05-09T17:45:20.773Z,26.60
2023-05-09T17:47:49.719Z,26.60
2023-05-09T17:50:19.061Z,26.50
2023-05-09T17:52:47.505Z,26.50
2023-05-09T17:55:15.783Z,26.50
2023-05-09T17:57:43.957Z,26.40
2023-05-09T18:00:13.020Z,26.40
2023-05-09T18:02:42.670Z,26.40
2023-05-09T18:05:11.135Z,26.30
2023-05-09T18:07:40.005Z,26.40
2023-05-09T18:10:08.887Z,26.30
2023-05-09T18:12:37.469Z,26.30
2023-05-09T18:15:06.028Z,26.20
2023-05-09T18:17:33.991Z,26.20
2023-05-09T18:20:03.497Z,26.20
2023-05-09T18:22:31.491Z,26.20
2023-05-09T18:24:59.537Z,26.10
2023-05-09T18:27:27.581Z,26.10
2023-05-09T18:29:55.608Z,26.10
2023-05-09T18:32:23.647Z,26.10
2023-05-09T18:34:51.736Z,26.10
2023-05-09T18:37:22.658Z,26.10
2023-05-09T18:39:50.642Z,26.00
2023-05-09T18:42:18.557Z,26.00
2023-05-09T18:44:46.558Z,26.00
2023-05-09T18:47:15.269Z,25.90
2023-05-09T18:49:43.246Z,25.90
2023-05-09T18:52:11.369Z,25.90
2023-05-09T18:54:41.222Z,25.80
2023-05-09T18:57:09.957Z,25.80
2023-05-09T18:59:40.816Z,25.70
2023-05-09T19:02:09.161Z,25.70
2023-05-09T19:04:37.122Z,25.70
2023-05-09T19:07:05.197Z,25.70
2023-05-09T19:09:33.671Z,25.70
2023-05-09T19:12:05.078Z,25.60
2023-05-09T19:14:33.279Z,25.60
2023-05-09T19:17:01.310Z,25.60
2023-05-09T19:19:29.322Z,25.50
2023-05-09T19:21:57.290Z,25.50
2023-05-09T19:24:25.238Z,25.50
2023-05-09T19:26:53.195Z,25.50
2023-05-09T19:29:22.501Z,25.50
2023-05-09T19:31:50.456Z,25.50
2023-05-09T19:34:18.404Z,25.40
2023-05-09T19:36:46.432Z,25.50
2023-05-09T19:39:14.378Z,25.40
2023-05-09T19:41:45.450Z,25.40
2023-05-09T19:44:13.350Z,25.40
2023-05-09T19:46:43.927Z,25.40
2023-05-09T19:49:11.941Z,25.30
2023-05-09T19:51:40.554Z,25.30
2023-05-09T19:54:08.673Z,25.30
2023-05-09T19:56:36.598Z,25.30
2023-05-09T19:59:04.556Z,25.30
2023-05-09T20:01:33.724Z,25.30
2023-05-09T20:04:03.207Z,25.20
2023-05-09T20:06:31.171Z,25.20
2023-05-09T20:08:59.115Z,25.20
2023-05-09T20:11:27.627Z,25.20
2023-05-09T20:13:55.818Z,25.10
2023-05-09T20:16:23.883Z,25.10
2023-05-09T20:18:52.658Z,25.10
2023-05-09T20:21:21.966Z,25.10
2023-05-09T20:23:50.036Z,25.10
2023-05-09T20:26:17.965Z,25.10
2023-05-09T20:28:45.933Z,25.10
2023-05-09T20:31:13.874Z,25.10
2023-05-09T20:33:41.942Z,25.10
2023-05-09T20:36:11.197Z,25.00
2023-05-09T20:38:40.539Z,25.00
2023-05-09T20:41:08.492Z,25.00
2023-05-09T20:43:36.447Z,25.00
2023-05-09T20:46:04.479Z,25.00
2023-05-09T20:48:32.513Z,25.00
2023-05-09T20:51:00.453Z,24.90
2023-05-09T20:53:31.400Z,24.90
2023-05-09T20:56:00.852Z,24.90
2023-05-09T20:58:31.230Z,24.90
2023-05-09T21:00:59.339Z,24.90
2023-05-09T21:03:27.405Z,24.90
2023-05-09T21:05:55.388Z,24.80
2023-05-09T21:08:24.114Z,24.80
2023-05-09T21:10:52.605Z,24.80
2023-05-09T21:13:21.979Z,24.80
2023-05-09T21:15:50.560Z,24.80
2023-05-09T21:18:18.580Z,24.80
2023-05-09T21:20:46.524Z,24.70
2023-05-09T21:23:14.496Z,24.70
2023-05-09T21:25:42.431Z,24.70
2023-05-09T21:28:10.364Z,24.70
2023-05-09T21:30:39.620Z,24.60
2023-05-09T21:33:07.571Z,24.70
2023-05-09T21:35:36.155Z,24.70
2023-05-09T21:38:04.091Z,24.70
2023-05-09T21:40:31.990Z,24.60
2023-05-09T21:42:59.909Z,24.60
2023-05-09T21:45:27.831Z,24.60
2023-05-09T21:47:57.207Z,24.60
2023-05-09T21:50:25.176Z,24.50
2023-05-09T21:52:53.494Z,24.60
2023-05-09T21:55:21.420Z,24.50
2023-05-09T21:57:49.375Z,24.50
2023-05-09T22:00:18.171Z,24.50
2023-05-09T22:02:47.071Z,24.50
2023-05-09T22:05:16.429Z,24.50
2023-05-09T22:07:44.365Z,24.50
2023-05-09T22:10:12.335Z,24.40
2023-05-09T22:12:40.266Z,24.40
2023-05-09T22:15:08.828Z,24.40
2023-05-09T22:17:36.931Z,24.40
2023-05-09T22:20:05.314Z,24.40
2023-05-09T22:22:34.629Z,24.40
2023-05-09T22:25:02.581Z,24.40
2023-05-09T22:27:30.489Z,24.40
2023-05-09T22:29:58.425Z,24.30
2023-05-09T22:32:26.575Z,24.30
2023-05-09T22:34:55.220Z,24.30
2023-05-09T22:37:23.137Z,24.30
2023-05-09T22:39:52.444Z,24.30
2023-05-09T22:42:20.378Z,24.20
2023-05-09T22:44:49.864Z,24.20
2023-05-09T22:47:17.898Z,24.20
2023-05-09T22:49:46.029Z,24.20
2023-05-09T22:52:14.030Z,24.20
2023-05-09T22:54:42.193Z,24.20
2023-05-09T22:57:11.553Z,24.20
2023-05-09T22:59:39.493Z,24.20
2023-05-09T23:02:07.521Z,24.10
2023-05-09T23:04:35.498Z,24.10
2023-05-09T23:07:03.454Z,24.10
2023-05-09T23:09:31.494Z,24.10
2023-05-09T23:11:59.633Z,24.10
2023-05-09T23:14:28.985Z,24.00
2023-05-09T23:16:57.275Z,24.00
2023-05-09T23:19:25.229Z,24.00
2023-05-09T23:21:53.203Z,24.00
2023-05-09T23:24:21.158Z,24.00
2023-05-09T23:26:49.076Z,24.00
2023-05-09T23:29:17.038Z,24.00
2023-05-09T23:31:46.461Z,24.00
2023-05-09T23:34:14.551Z,24.00
2023-05-09T23:36:42.511Z,23.90
2023-05-09T23:39:10.782Z,24.00
2023-05-09T23:41:38.910Z,23.90
2023-05-09T23:44:07.707Z,23.90
2023-05-09T23:46:35.748Z,23.90
2023-05-09T23:49:05.070Z,23.90
2023-05-09T23:51:33.012Z,23.90
2023-05-09T23:54:00.944Z,23.90
2023-05-09T23:56:28.956Z,23.90
2023-05-09T23:58:56.889Z,23.80
